Time;durP1;ratioP1;P1;durP2;ratioP2;P2;SDS_P1;SDS_P2;PMS_P1;PMS_P2;Temp;Humidity;BMP_temperature;BMP_pressure;BME280_temperature;BME280_humidity;BME280_pressure;Samples;Min_cycle;Max_cycle;Signal;HPM_P1;HPM_P2
2024/04/24 00:00:12;;;;;;;2.17;0.40;;;;;;;-146.25;100.00;52325.63;2195451;27;31488;-70
2024/04/24 00:01:14;;;;;;;5.63;0.50;;;;;;;-146.25;100.00;52327.66;2195913;26;37025;-71
2024/04/24 00:02:17;;;;;;;2.53;0.40;;;;;;;-146.25;100.00;52335.75;2197008;26;20006;-69
2024/04/24 00:03:20;;;;;;;5.15;0.90;;;;;;;-146.25;100.00;52319.53;2196049;26;33258;-70
2024/04/24 00:04:23;;;;;;;5.85;0.35;;;;;;;-146.25;100.00;52339.81;2195539;27;36011;-71
2024/04/24 00:05:26;;;;;;;7.32;0.50;;;;;;;-146.25;100.00;52327.66;2195077;27;34148;-70
2024/04/24 00:06:28;;;;;;;3.83;0.50;;;;;;;-146.25;100.00;52360.09;2195617;26;40127;-70
2024/04/24 00:07:30;;;;;;;4.95;0.60;;;;;;;-146.25;100.00;52343.88;2196187;27;20006;-70
2024/04/24 00:08:35;;;;;;;4.72;0.57;;;;;;;-146.25;100.00;52347.91;2195312;27;35896;-70
2024/04/24 00:09:39;;;;;;;4.15;0.40;;;;;;;-146.25;100.00;52287.09;2195709;26;35212;-70
2024/04/24 00:10:41;;;;;;;4.97;0.45;;;;;;;-146.25;100.00;52347.91;2196323;26;30058;-70
2024/04/24 00:11:43;;;;;;;5.10;0.40;;;;;;;-146.25;100.00;52331.69;2195763;26;38628;-71
2024/04/24 00:12:45;;;;;;;2.40;0.57;;;;;;;-146.25;100.00;52339.81;2196135;26;36699;-71
2024/04/24 00:13:49;;;;;;;3.63;0.50;;;;;;;-146.25;100.00;52347.91;2195833;26;34366;-70
2024/04/24 00:14:51;;;;;;;5.38;0.50;;;;;;;-146.25;100.00;52339.81;2196162;26;32874;-71
2024/04/24 00:15:53;;;;;;;5.20;0.30;;;;;;;-146.25;100.00;52343.88;2195883;26;34826;-71
2024/04/24 00:16:55;;;;;;;6.88;0.40;;;;;;;-146.25;100.00;52347.91;2195174;27;36037;-70
2024/04/24 00:17:57;;;;;;;3.47;0.47;;;;;;;-146.25;100.00;52319.53;2195024;27;33613;-70
2024/04/24 00:19:00;;;;;;;5.63;0.43;;;;;;;-146.25;100.00;52347.91;2196099;27;20064;-70
2024/04/24 00:20:04;;;;;;;5.15;0.50;;;;;;;-146.25;100.00;52323.59;2194828;27;34199;-71
2024/04/24 00:21:06;;;;;;;6.60;0.60;;;;;;;-146.25;100.00;52364.13;2195138;27;28727;-69
2024/04/24 00:22:08;;;;;;;4.30;0.40;;;;;;;-146.25;100.00;52333.72;2195791;26;33297;-71
2024/04/24 00:23:10;;;;;;;6.65;0.55;;;;;;;-146.25;100.00;52347.91;2195790;27;20478;-71
2024/04/24 00:24:14;;;;;;;6.97;0.50;;;;;;;-146.25;100.00;52333.72;2195007;27;35066;-70
2024/04/24 00:25:16;;;;;;;6.32;0.57;;;;;;;-146.25;100.00;52366.16;2195854;26;36921;-70
2024/04/24 00:26:18;;;;;;;5.53;0.40;;;;;;;-146.25;100.00;52329.66;2195025;27;30741;-71
2024/04/24 00:27:20;;;;;;;4.78;0.43;;;;;;;-146.25;100.00;52339.81;2195894;27;33794;-71
2024/04/24 00:28:22;;;;;;;5.63;0.40;;;;;;;-146.25;100.00;52335.75;2195997;27;38558;-70
2024/04/24 00:29:24;;;;;;;5.10;0.50;;;;;;;-146.25;100.00;52356.03;2196551;26;35499;-71
2024/04/24 00:30:25;;;;;;;4.38;0.50;;;;;;;-146.25;100.00;52351.97;2196852;26;34255;-70
2024/04/24 00:31:27;;;;;;;4.82;0.40;;;;;;;-146.25;100.00;52343.88;2197315;26;37773;-70
2024/04/24 00:32:29;;;;;;;5.88;0.70;;;;;;;-146.25;100.00;52317.50;2196867;26;34358;-71
2024/04/24 00:33:31;;;;;;;4.57;0.40;;;;;;;-146.25;100.00;52339.81;2197007;26;40374;-70
2024/04/24 00:34:35;;;;;;;4.57;0.50;;;;;;;-146.25;100.00;52358.06;2196837;26;33593;-71
2024/04/24 00:35:38;;;;;;;4.80;0.50;;;;;;;-146.25;100.00;52325.63;2197696;26;21065;-71
2024/04/24 00:36:40;;;;;;;4.45;0.50;;;;;;;-146.25;100.00;52354.00;2209916;26;34331;-70
2024/04/24 00:37:42;;;;;;;5.85;0.50;;;;;;;-146.25;100.00;52299.25;2210622;26;30889;-71
2024/04/24 00:38:44;;;;;;;9.45;0.80;;;;;;;-146.25;100.00;52354.00;2196733;26;36291;-70
2024/04/24 00:39:46;;;;;;;5.10;0.50;;;;;;;-146.25;100.00;52321.56;2197076;26;37328;-71
2024/04/24 00:40:48;;;;;;;6.47;0.40;;;;;;;-146.25;100.00;52374.28;2196877;26;33742;-71
2024/04/24 00:41:50;;;;;;;5.05;0.40;;;;;;;-146.25;100.00;52341.84;2197083;26;37594;-71
2024/04/24 00:42:54;;;;;;;4.38;0.60;;;;;;;-146.25;100.00;52343.88;2196899;26;34717;-71
2024/04/24 00:43:56;;;;;;;6.53;0.65;;;;;;;-146.25;100.00;52360.09;2197823;26;20006;-71
2024/04/24 00:44:58;;;;;;;7.70;0.52;;;;;;;-146.25;100.00;52339.81;2196706;26;34965;-71
2024/04/24 00:46:00;;;;;;;6.68;0.50;;;;;;;-146.25;100.00;52356.03;2197330;26;33395;-70
2024/04/24 00:47:02;;;;;;;4.35;0.60;;;;;;;-146.25;100.00;52333.72;2196772;26;36028;-70
2024/04/24 00:48:06;;;;;;;3.92;0.50;;;;;;;-146.25;100.00;52351.97;2197272;26;35978;-71
2024/04/24 00:49:10;;;;;;;5.50;0.70;;;;;;;-146.25;100.00;52309.41;2196840;26;35238;-71
2024/04/24 00:50:15;;;;;;;8.27;0.77;;;;;;;-146.25;100.00;52354.00;2196229;27;34660;-71
2024/04/24 00:51:19;;;;;;;7.30;0.70;;;;;;;-146.25;100.00;52319.53;2196244;26;34949;-70
2024/04/24 00:52:23;;;;;;;12.00;0.85;;;;;;;-146.25;100.00;52358.06;2196290;26;34885;-71
2024/04/24 00:53:25;;;;;;;4.88;0.65;;;;;;;-146.25;100.00;52337.78;2196127;27;33124;-71
2024/04/24 00:54:27;;;;;;;11.23;0.80;;;;;;;-146.25;100.00;52358.06;2196324;27;34491;-71
2024/04/24 00:55:30;;;;;;;5.03;0.68;;;;;;;-146.25;100.00;52313.44;2195984;27;36172;-71
2024/04/24 00:56:32;;;;;;;6.32;1.02;;;;;;;-146.25;100.00;52325.63;2196327;26;34616;-71
2024/04/24 00:57:36;;;;;;;7.30;1.05;;;;;;;-146.25;100.00;52329.66;2195861;26;35525;-71
2024/04/24 00:58:38;;;;;;;5.50;1.00;;;;;;;-146.25;100.00;52358.06;2196245;27;35005;-69
2024/04/24 00:59:40;;;;;;;5.88;0.80;;;;;;;-146.25;100.00;52376.31;2196093;27;32490;-71
2024/04/24 01:00:42;;;;;;;6.53;0.95;;;;;;;-146.25;100.00;52317.50;2196368;27;33759;-70
2024/04/24 01:01:44;;;;;;;7.47;0.70;;;;;;;-146.25;100.00;52347.91;2196881;26;34638;-70
2024/04/24 01:02:47;;;;;;;5.25;0.80;;;;;;;-146.25;100.00;52339.81;2197065;26;33733;-71
2024/04/24 01:03:49;;;;;;;3.70;0.60;;;;;;;-146.25;100.00;52335.75;2197440;26;35548;-71
2024/04/24 01:04:51;;;;;;;3.80;0.77;;;;;;;-146.25;100.00;52364.13;2196932;26;36521;-71
2024/04/24 01:05:53;;;;;;;4.90;0.45;;;;;;;-146.25;100.00;52323.59;2196044;27;33653;-71
2024/04/24 01:06:55;;;;;;;4.18;0.55;;;;;;;-146.25;100.00;52337.78;2195750;26;34374;-71
2024/04/24 01:07:59;;;;;;;4.80;0.60;;;;;;;-146.25;100.00;52297.22;2197412;26;21273;-70
2024/04/24 01:09:01;;;;;;;3.40;0.60;;;;;;;-146.25;100.00;52333.72;2196975;26;36903;-71
2024/04/24 01:10:17;;;;;;;8.25;1.02;;;;;;;-146.25;100.00;52315.47;2195889;27;34151;-71
2024/04/24 01:11:21;;;;;;;5.63;0.70;;;;;;;-146.25;100.00;52339.81;2197175;27;20006;-71
2024/04/24 01:12:23;;;;;;;6.57;0.73;;;;;;;-146.25;100.00;52333.72;2196893;27;35510;-71
2024/04/24 01:13:27;;;;;;;9.35;1.05;;;;;;;-146.25;100.00;52339.81;2197373;27;20998;-70
2024/04/24 01:14:29;;;;;;;8.20;1.17;;;;;;;-146.25;100.00;52323.59;2197321;27;35380;-71
2024/04/24 01:15:35;;;;;;;7.45;0.95;;;;;;;-146.25;100.00;52368.19;2195876;27;36789;-70
2024/04/24 01:16:39;;;;;;;3.83;0.70;;;;;;;-146.25;100.00;52323.59;2196299;26;34902;-71
2024/04/24 01:17:46;;;;;;;4.50;0.90;;;;;;;-146.25;100.00;52358.06;2196700;26;35138;-70
2024/04/24 01:19:01;;;;;;;7.72;0.93;;;;;;;-146.25;100.00;52341.84;2196246;27;32824;-71
2024/04/24 01:20:11;;;;;;;4.32;0.68;;;;;;;-146.25;100.00;52327.66;2185828;27;37922;-70
2024/04/24 01:21:15;;;;;;;6.13;0.52;;;;;;;-146.25;100.00;52291.16;2196491;27;35486;-70
2024/04/24 01:22:50;;;;;;;2.55;0.63;;;;;;;-146.25;100.00;52360.09;2195405;27;34050;-71
2024/04/24 01:23:56;;;;;;;5.07;0.55;;;;;;;-146.25;100.00;52356.03;2197167;27;20164;-71
2024/04/24 01:25:09;;;;;;;7.28;0.68;;;;;;;-146.25;100.00;52341.84;2195821;27;39406;-71
2024/04/24 01:26:34;;;;;;;5.85;0.70;;;;;;;-146.25;100.00;52337.78;2195860;27;35958;-71
2024/04/24 01:27:37;;;;;;;2.97;0.63;;;;;;;-146.25;100.00;52319.53;2197036;27;22023;-71
2024/04/24 01:28:41;;;;;;;6.32;0.95;;;;;;;-146.25;100.00;52362.13;2196598;26;21101;-71
2024/04/24 01:29:43;;;;;;;4.72;0.45;;;;;;;-146.25;100.00;52331.69;2196789;27;36935;-71
2024/04/24 01:30:45;;;;;;;3.75;0.60;;;;;;;-146.25;100.00;52313.44;2196532;27;33295;-71
2024/04/24 01:31:47;;;;;;;4.72;0.70;;;;;;;-146.25;100.00;52339.81;2197751;26;20112;-70
2024/04/24 01:32:49;;;;;;;5.97;0.70;;;;;;;-146.25;100.00;52349.94;2196588;26;34137;-71
2024/04/24 01:33:51;;;;;;;6.80;0.95;;;;;;;-146.25;100.00;52343.88;2197161;27;28144;-71
2024/04/24 01:34:55;;;;;;;5.18;0.90;;;;;;;-146.25;100.00;52354.00;2196542;27;34381;-70
2024/04/24 01:35:58;;;;;;;7.57;0.88;;;;;;;-146.25;100.00;52362.13;2196831;27;35392;-71
2024/04/24 01:37:00;;;;;;;6.85;0.70;;;;;;;-146.25;100.00;52376.31;2196342;26;35970;-71
2024/04/24 01:38:01;;;;;;;7.13;0.85;;;;;;;-146.25;100.00;52360.09;2197164;26;35171;-71
2024/04/24 01:39:04;;;;;;;7.68;0.75;;;;;;;-146.25;100.00;52329.66;2195610;26;34259;-71
2024/04/24 01:40:07;;;;;;;7.50;0.90;;;;;;;-146.25;100.00;52347.91;2196958;26;36062;-71
2024/04/24 01:41:09;;;;;;;6.70;0.70;;;;;;;-146.25;100.00;52337.78;2196575;26;33414;-72
2024/04/24 01:42:11;;;;;;;5.90;0.80;;;;;;;-146.25;100.00;52343.88;2197039;26;34767;-71
2024/04/24 01:43:13;;;;;;;4.43;0.70;;;;;;;-146.25;100.00;52319.53;2196601;26;32209;-71
2024/04/24 01:44:15;;;;;;;8.93;0.63;;;;;;;-146.25;100.00;52335.75;2197115;26;30024;-71
2024/04/24 01:45:17;;;;;;;6.70;0.80;;;;;;;-146.25;100.00;52333.72;2197255;26;21028;-71
2024/04/24 01:46:19;;;;;;;10.52;0.88;;;;;;;-146.25;100.00;52339.81;2196974;26;37446;-71
2024/04/24 01:47:20;;;;;;;6.28;0.93;;;;;;;-146.25;100.00;52376.31;2196664;26;31333;-71
2024/04/24 01:48:22;;;;;;;5.25;0.70;;;;;;;-146.25;100.00;52327.66;2197015;26;32433;-71
2024/04/24 01:49:24;;;;;;;6.07;0.70;;;;;;;-146.25;100.00;52323.59;2196323;26;35884;-71
2024/04/24 01:50:26;;;;;;;8.45;0.80;;;;;;;-146.25;100.00;52360.09;2197012;26;34637;-71
2024/04/24 01:51:31;;;;;;;7.13;0.75;;;;;;;-146.25;100.00;52343.88;2196236;26;33915;-71
2024/04/24 01:52:35;;;;;;;6.97;0.68;;;;;;;-146.25;100.00;52337.78;2196909;26;35159;-71
2024/04/24 01:53:36;;;;;;;5.13;0.82;;;;;;;-146.25;100.00;52343.88;2197246;26;20039;-71
2024/04/24 01:54:38;;;;;;;6.82;0.57;;;;;;;-146.25;100.00;52341.84;2196904;26;36895;-70
2024/04/24 01:55:40;;;;;;;6.85;1.00;;;;;;;-146.25;100.00;52319.53;2196356;26;33991;-70
2024/04/24 01:56:42;;;;;;;6.40;0.63;;;;;;;-146.25;100.00;52335.75;2197026;26;32251;-71
2024/04/24 01:57:44;;;;;;;5.05;0.60;;;;;;;-146.25;100.00;52360.09;2196420;26;36974;-71
2024/04/24 01:58:46;;;;;;;6.35;0.60;;;;;;;-146.25;100.00;52337.78;2197686;26;20255;-71
2024/04/24 01:59:48;;;;;;;6.15;0.70;;;;;;;-146.25;100.00;52354.00;2196598;26;35123;-71
2024/04/24 02:00:50;;;;;;;8.85;0.90;;;;;;;-146.25;100.00;52343.88;2195895;26;31783;-71
2024/04/24 02:01:52;;;;;;;6.72;1.05;;;;;;;-146.25;100.00;52349.94;2196364;27;20100;-71
2024/04/24 02:02:54;;;;;;;7.13;0.82;;;;;;;-146.25;100.00;52323.59;2196276;27;30967;-71
2024/04/24 02:03:56;;;;;;;7.65;1.02;;;;;;;-146.25;100.00;52349.94;2196542;26;32580;-71
2024/04/24 02:05:00;;;;;;;7.82;0.80;;;;;;;-146.25;100.00;52351.97;2196676;27;20966;-71
2024/04/24 02:06:02;;;;;;;6.90;0.68;;;;;;;-146.25;100.00;52339.81;2195501;27;35122;-70
2024/04/24 02:07:04;;;;;;;5.45;0.68;;;;;;;-146.25;100.00;52337.78;2196711;26;33017;-71
2024/04/24 02:08:06;;;;;;;6.57;0.73;;;;;;;-146.25;100.00;52345.91;2196421;26;35761;-71
2024/04/24 02:09:08;;;;;;;12.50;1.05;;;;;;;-146.25;100.00;52331.69;2196004;27;36586;-71
2024/04/24 02:10:10;;;;;;;7.82;0.90;;;;;;;-146.25;100.00;52366.16;2196068;27;20018;-70
2024/04/24 02:11:18;;;;;;;8.82;0.80;;;;;;;-146.25;100.00;52354.00;2196889;26;37429;-71
2024/04/24 02:12:20;;;;;;;13.35;1.27;;;;;;;-146.25;100.00;52349.94;2196446;26;32779;-71
2024/04/24 02:13:22;;;;;;;6.00;0.70;;;;;;;-146.25;100.00;52325.63;2196973;26;32990;-71
2024/04/24 02:14:24;;;;;;;6.55;0.70;;;;;;;-146.25;100.00;52343.88;2195483;27;37150;-71
2024/04/24 02:15:26;;;;;;;7.90;0.95;;;;;;;-146.25;100.00;52341.84;2195908;27;34877;-71
2024/04/24 02:16:27;;;;;;;8.35;0.77;;;;;;;-146.25;100.00;52370.22;2196408;26;34155;-71
2024/04/24 02:17:32;;;;;;;4.28;0.80;;;;;;;-146.25;100.00;52349.94;2196849;26;35828;-70
2024/04/24 02:18:34;;;;;;;6.88;0.75;;;;;;;-146.25;100.00;52356.03;2196416;26;32001;-71
2024/04/24 02:19:36;;;;;;;11.07;1.15;;;;;;;-146.25;100.00;52319.53;2196626;26;35142;-71
2024/04/24 02:20:38;;;;;;;9.18;1.00;;;;;;;-146.25;100.00;52319.53;2196453;26;34951;-71
2024/04/24 02:21:39;;;;;;;12.63;0.90;;;;;;;-146.25;100.00;52384.41;2196580;26;35748;-70
2024/04/24 02:22:43;;;;;;;5.68;0.70;;;;;;;-146.25;100.00;52398.59;2196675;26;36529;-71
2024/04/24 02:23:45;;;;;;;7.70;0.57;;;;;;;-146.25;100.00;52343.88;2197456;26;34935;-70
2024/04/24 02:26:08;;;;;;;11.13;1.00;;;;;;;-146.25;100.00;52368.19;2197479;26;21020;-71
2024/04/24 02:27:10;;;;;;;6.47;0.60;;;;;;;-146.25;100.00;52331.69;2195963;27;22245;-71
2024/04/24 02:28:12;;;;;;;7.38;0.70;;;;;;;-146.25;100.00;52317.50;2195370;27;34705;-71
2024/04/24 02:29:14;;;;;;;8.00;0.88;;;;;;;-146.25;100.00;52315.47;2196402;26;33475;-70
2024/04/24 02:30:16;;;;;;;11.77;0.77;;;;;;;-146.25;100.00;52339.81;2196666;26;37062;-70
2024/04/24 02:31:18;;;;;;;6.75;0.85;;;;;;;-146.25;100.00;52347.91;2196519;26;32475;-70
2024/04/24 02:32:20;;;;;;;9.43;1.50;;;;;;;-146.25;100.00;52364.13;2196669;26;34341;-70
2024/04/24 02:33:24;;;;;;;9.25;0.55;;;;;;;-146.25;100.00;52372.25;2197230;26;20006;-71
2024/04/24 02:34:26;;;;;;;6.63;0.85;;;;;;;-146.25;100.00;52347.91;2197484;26;20839;-71
2024/04/24 02:35:28;;;;;;;8.18;0.57;;;;;;;-146.25;100.00;52327.66;2196086;26;38768;-71
2024/04/24 02:36:30;;;;;;;7.78;0.98;;;;;;;-146.25;100.00;52335.75;2196662;26;32798;-71
2024/04/24 02:37:32;;;;;;;6.15;0.50;;;;;;;-146.25;100.00;52295.19;2196076;26;33323;-70
2024/04/24 02:38:36;;;;;;;9.63;1.05;;;;;;;-146.25;100.00;52341.84;2195953;27;31477;-71
2024/04/24 02:39:38;;;;;;;5.85;0.50;;;;;;;-146.25;100.00;52358.06;2195962;27;20022;-70
2024/04/24 02:40:43;;;;;;;6.47;0.93;;;;;;;-146.25;100.00;52343.88;2196868;26;20002;-70
2024/04/24 02:41:47;;;;;;;9.38;1.10;;;;;;;-146.25;100.00;52364.13;2195295;27;31376;-71
2024/04/24 02:42:49;;;;;;;7.85;1.08;;;;;;;-146.25;100.00;52358.06;2193721;26;32732;-70
2024/04/24 02:43:51;;;;;;;11.50;1.13;;;;;;;-146.25;100.00;52317.50;2208467;26;37652;-70
2024/04/24 02:44:55;;;;;;;7.88;0.85;;;;;;;-146.25;100.00;52337.78;2211998;26;20009;-71
2024/04/24 02:45:57;;;;;;;9.45;0.60;;;;;;;-146.25;100.00;52331.69;2210713;26;34697;-71
2024/04/24 02:46:59;;;;;;;9.60;0.80;;;;;;;-146.25;100.00;52345.91;2210418;26;34853;-71
2024/04/24 02:48:01;;;;;;;9.10;0.80;;;;;;;-146.25;100.00;52368.19;2209957;26;31761;-70
2024/04/24 02:49:03;;;;;;;5.80;0.80;;;;;;;-146.25;100.00;52376.31;2209999;26;37005;-70
2024/04/24 02:50:05;;;;;;;9.73;1.15;;;;;;;-146.25;100.00;52329.66;2209508;26;33092;-71
2024/04/24 02:51:07;;;;;;;8.13;0.90;;;;;;;-146.25;100.00;52331.69;2210809;26;34870;-71
2024/04/24 02:52:09;;;;;;;9.52;0.90;;;;;;;-146.25;100.00;52343.88;2210612;26;28686;-71
2024/04/24 02:53:13;;;;;;;8.38;0.80;;;;;;;-146.25;100.00;52356.03;2211006;26;33020;-71
2024/04/24 02:54:15;;;;;;;6.60;1.17;;;;;;;-146.25;100.00;52331.69;2210550;26;35635;-71
2024/04/24 02:55:17;;;;;;;7.85;0.77;;;;;;;-146.25;100.00;52370.22;2211661;26;21004;-71
2024/04/24 02:56:19;;;;;;;5.43;0.73;;;;;;;-146.25;100.00;52388.47;2210016;26;36918;-70
2024/04/24 02:57:21;;;;;;;6.47;0.68;;;;;;;-146.25;100.00;52323.59;2210546;26;35946;-70
2024/04/24 02:58:23;;;;;;;9.90;0.90;;;;;;;-146.25;100.00;52368.19;2210056;26;31387;-71
2024/04/24 02:59:25;;;;;;;4.88;0.63;;;;;;;-146.25;100.00;52349.94;2209790;26;37562;-71
2024/04/24 03:00:29;;;;;;;9.25;0.88;;;;;;;-146.25;100.00;52358.06;2210630;26;32871;-71
2024/04/24 03:01:31;;;;;;;5.57;0.52;;;;;;;-146.25;100.00;52368.19;2210820;26;35600;-71
2024/04/24 03:02:33;;;;;;;7.72;0.90;;;;;;;-146.25;100.00;52345.91;2211437;26;20663;-71
2024/04/24 03:03:36;;;;;;;5.03;0.60;;;;;;;-146.25;100.00;52335.75;2210793;26;37226;-70
2024/04/24 03:04:38;;;;;;;10.80;0.77;;;;;;;-146.25;100.00;52343.88;2211121;26;21001;-70
2024/04/24 03:05:40;;;;;;;6.43;0.70;;;;;;;-146.25;100.00;52305.34;2210966;26;32058;-70
2024/04/24 03:06:43;;;;;;;7.78;0.68;;;;;;;-146.25;100.00;52323.59;2210965;26;35270;-70
2024/04/24 03:07:45;;;;;;;7.25;0.73;;;;;;;-146.25;100.00;52323.59;2211497;26;20056;-71
2024/04/24 03:08:47;;;;;;;8.05;0.90;;;;;;;-146.25;100.00;52343.88;2209978;26;34878;-70
2024/04/24 03:09:49;;;;;;;10.00;1.20;;;;;;;-146.25;100.00;52362.13;2210789;26;34861;-71
2024/04/24 03:10:51;;;;;;;6.43;0.73;;;;;;;-146.25;100.00;52368.19;2210521;26;36289;-71
2024/04/24 03:11:52;;;;;;;9.00;0.90;;;;;;;-146.25;100.00;52347.91;2211101;26;30013;-71
2024/04/24 03:12:54;;;;;;;5.47;0.60;;;;;;;-146.25;100.00;52349.94;2210461;26;21041;-71
2024/04/24 03:13:56;;;;;;;9.07;0.82;;;;;;;-146.25;100.00;52339.81;2196681;26;35593;-71
2024/04/24 03:14:58;;;;;;;7.32;0.93;;;;;;;-146.25;100.00;52343.88;2196180;26;31517;-70
2024/04/24 03:16:00;;;;;;;10.63;0.70;;;;;;;-146.25;100.00;52356.03;2196969;26;27959;-70
2024/04/24 03:17:02;;;;;;;8.52;0.73;;;;;;;-146.25;100.00;52364.13;2196791;26;20013;-70
2024/04/24 03:18:05;;;;;;;4.43;0.73;;;;;;;-146.25;100.00;52364.13;2196484;26;37874;-70
2024/04/24 03:19:07;;;;;;;7.65;0.80;;;;;;;-146.25;100.00;52339.81;2195345;27;33809;-70
2024/04/24 03:20:09;;;;;;;8.95;0.80;;;;;;;-146.25;100.00;52376.31;2195648;27;33988;-71
2024/04/24 03:21:23;;;;;;;5.88;0.73;;;;;;;-146.25;100.00;52335.75;2196975;26;21010;-71
2024/04/24 03:22:29;;;;;;;8.50;0.77;;;;;;;-146.25;100.00;52309.41;2197229;26;20002;-71
2024/04/24 03:23:31;;;;;;;5.38;0.60;;;;;;;-146.25;100.00;52347.91;2195358;27;39454;-71
2024/04/24 03:24:32;;;;;;;12.27;1.02;;;;;;;-146.25;100.00;52366.16;2195934;27;31944;-70
2024/04/24 03:25:34;;;;;;;8.52;0.70;;;;;;;-146.25;100.00;52368.19;2196190;26;33286;-71
2024/04/24 03:26:36;;;;;;;5.40;0.77;;;;;;;-146.25;100.00;52360.09;2196627;26;32278;-70
2024/04/24 03:27:40;;;;;;;5.82;0.93;;;;;;;-146.25;100.00;52331.69;2196286;26;35499;-70
2024/04/24 03:28:43;;;;;;;12.75;1.02;;;;;;;-146.25;100.00;52349.94;2196176;26;35508;-70
2024/04/24 03:29:44;;;;;;;7.18;0.75;;;;;;;-146.25;100.00;52351.97;2196762;26;33720;-71
2024/04/24 03:30:49;;;;;;;9.63;0.80;;;;;;;-146.25;100.00;52339.81;2196462;26;35686;-71
2024/04/24 03:31:50;;;;;;;10.07;0.88;;;;;;;-146.25;100.00;52362.13;2196210;26;38759;-71
2024/04/24 03:32:52;;;;;;;6.70;0.77;;;;;;;-146.25;100.00;52356.03;2196503;26;31793;-70
2024/04/24 03:33:54;;;;;;;6.22;0.60;;;;;;;-146.25;100.00;52341.84;2196192;26;36287;-71
2024/04/24 03:34:56;;;;;;;8.23;0.70;;;;;;;-146.25;100.00;52374.28;2196637;26;31323;-70
2024/04/24 03:35:59;;;;;;;5.18;0.73;;;;;;;-146.25;100.00;52317.50;2196270;26;33207;-70
2024/04/24 03:37:01;;;;;;;7.57;0.98;;;;;;;-146.25;100.00;52354.00;2196386;26;38556;-70
2024/04/24 03:38:03;;;;;;;5.05;0.73;;;;;;;-146.25;100.00;52343.88;2196783;26;20013;-70
2024/04/24 03:39:05;;;;;;;7.80;0.77;;;;;;;-146.25;100.00;52360.09;2197086;26;20028;-71
2024/04/24 03:40:07;;;;;;;11.63;1.10;;;;;;;-146.25;100.00;52331.69;2196196;26;35082;-71
2024/04/24 03:41:09;;;;;;;9.90;0.98;;;;;;;-146.25;100.00;52356.03;2196485;26;35100;-70
2024/04/24 03:42:11;;;;;;;8.20;0.80;;;;;;;-146.25;100.00;52386.44;2196090;26;37782;-71
2024/04/24 03:43:13;;;;;;;6.32;0.73;;;;;;;-146.25;100.00;52360.09;2196453;26;35745;-71
2024/04/24 03:44:15;;;;;;;7.07;0.65;;;;;;;-146.25;100.00;52297.22;2196139;26;34901;-70
2024/04/24 03:45:17;;;;;;;6.35;0.82;;;;;;;-146.25;100.00;52325.63;2195405;27;35932;-71
2024/04/24 03:46:18;;;;;;;7.05;0.68;;;;;;;-146.25;100.00;52376.31;2195929;27;20867;-70
2024/04/24 03:47:23;;;;;;;4.72;0.68;;;;;;;-146.25;100.00;52343.88;2196336;26;37634;-70
2024/04/24 03:48:25;;;;;;;6.05;0.90;;;;;;;-146.25;100.00;52311.44;2195970;26;37556;-70
2024/04/24 03:49:29;;;;;;;10.07;0.90;;;;;;;-146.25;100.00;52349.94;2196852;26;20013;-71
2024/04/24 03:50:31;;;;;;;3.53;0.63;;;;;;;-146.25;100.00;52343.88;2196073;26;34545;-71
2024/04/24 03:51:35;;;;;;;4.60;0.70;;;;;;;-146.25;100.00;52366.16;2196821;26;30343;-71
2024/04/24 03:52:37;;;;;;;5.90;1.00;;;;;;;-146.25;100.00;52351.97;2196030;26;31263;-71
2024/04/24 03:53:41;;;;;;;9.10;1.00;;;;;;;-146.25;100.00;52358.06;2196235;26;36632;-68
2024/04/24 03:54:43;;;;;;;9.20;1.00;;;;;;;-146.25;100.00;52354.00;2196757;26;20017;-69
2024/04/24 03:55:45;;;;;;;6.30;0.80;;;;;;;-146.25;100.00;52301.28;2196195;26;33497;-71
2024/04/24 03:56:47;;;;;;;4.70;0.57;;;;;;;-146.25;100.00;52356.03;2195167;27;33492;-70
2024/04/24 03:57:49;;;;;;;6.43;0.85;;;;;;;-146.25;100.00;52345.91;2195562;27;33530;-71
2024/04/24 03:58:50;;;;;;;6.95;0.80;;;;;;;-146.25;100.00;52351.97;2195829;26;31797;-71
2024/04/24 03:59:55;;;;;;;8.45;0.93;;;;;;;-146.25;100.00;52364.13;2196098;26;36072;-71
2024/04/24 04:00:56;;;;;;;7.53;1.00;;;;;;;-146.25;100.00;52347.91;2195900;26;35250;-71
2024/04/24 04:01:58;;;;;;;6.18;0.90;;;;;;;-146.25;100.00;52388.47;2196622;26;34097;-70
2024/04/24 04:03:03;;;;;;;5.38;0.80;;;;;;;-146.25;100.00;52378.34;2196918;26;37643;-71
2024/04/24 04:04:05;;;;;;;4.90;1.13;;;;;;;-146.25;100.00;52372.25;2196389;26;36192;-71
2024/04/24 04:05:07;;;;;;;5.18;0.95;;;;;;;-146.25;100.00;52364.13;2196172;27;35033;-71
2024/04/24 04:06:09;;;;;;;6.18;0.75;;;;;;;-146.25;100.00;52384.41;2197838;26;20146;-71
2024/04/24 04:07:10;;;;;;;4.40;0.70;;;;;;;-146.25;100.00;52360.09;2197019;26;34354;-71
2024/04/24 04:08:12;;;;;;;5.95;1.15;;;;;;;-146.25;100.00;52366.16;2197218;26;36551;-71
2024/04/24 04:09:14;;;;;;;6.93;1.10;;;;;;;-146.25;100.00;52368.19;2196759;26;37407;-70
2024/04/24 04:10:16;;;;;;;5.47;0.88;;;;;;;-146.25;100.00;52351.97;2197305;26;35291;-71
2024/04/24 04:11:18;;;;;;;8.27;0.95;;;;;;;-146.25;100.00;52376.31;2196896;26;36710;-71
2024/04/24 04:12:20;;;;;;;7.15;0.73;;;;;;;-146.25;100.00;52370.22;2197249;27;33769;-70
2024/04/24 04:13:24;;;;;;;5.95;0.82;;;;;;;-146.25;100.00;52337.78;2196068;27;36850;-70
2024/04/24 04:14:26;;;;;;;4.68;0.60;;;;;;;-146.25;100.00;52360.09;2196395;27;37667;-71
2024/04/24 04:15:28;;;;;;;5.78;0.60;;;;;;;-146.25;100.00;52368.19;2196970;26;32421;-71
2024/04/24 04:16:32;;;;;;;2.70;0.40;;;;;;;-146.25;100.00;52351.97;2197126;26;38329;-71
2024/04/24 04:17:34;;;;;;;5.90;0.70;;;;;;;-146.25;100.00;52402.66;2197614;26;20009;-71
2024/04/24 04:18:38;;;;;;;6.57;0.80;;;;;;;-146.25;100.00;52364.13;2197271;26;34782;-71
2024/04/24 04:19:40;;;;;;;5.45;0.60;;;;;;;-146.25;100.00;52378.34;2196855;26;37713;-71
2024/04/24 04:20:41;;;;;;;4.82;0.73;;;;;;;-146.25;100.00;52372.25;2197357;26;32084;-71
2024/04/24 04:21:43;;;;;;;3.25;0.57;;;;;;;-146.25;100.00;52358.06;2196849;26;33799;-71
2024/04/24 04:22:45;;;;;;;4.78;0.73;;;;;;;-146.25;100.00;52376.31;2198009;26;20030;-71
2024/04/24 04:23:47;;;;;;;6.93;0.65;;;;;;;-146.25;100.00;52376.31;2196867;26;34843;-71
2024/04/24 04:24:49;;;;;;;6.75;0.85;;;;;;;-146.25;100.00;52372.25;2196208;26;33349;-70
2024/04/24 04:25:51;;;;;;;3.90;0.55;;;;;;;-146.25;100.00;52325.63;2197076;26;31821;-71
2024/04/24 04:26:53;;;;;;;3.72;0.50;;;;;;;-146.25;100.00;52364.13;2197194;26;33460;-70
2024/04/24 04:27:58;;;;;;;5.97;0.70;;;;;;;-146.25;100.00;52368.19;2197124;26;36134;-71
2024/04/24 04:29:02;;;;;;;4.82;1.10;;;;;;;-146.25;100.00;52370.22;2196712;27;20014;-70
2024/04/24 04:30:05;;;;;;;5.18;0.85;;;;;;;-146.25;100.00;52374.28;2195969;27;35104;-71
2024/04/24 04:31:07;;;;;;;8.77;1.10;;;;;;;-146.25;100.00;52386.44;2197205;26;33008;-71
2024/04/24 04:32:09;;;;;;;5.60;0.88;;;;;;;-146.25;100.00;52360.09;2196918;26;34785;-71
2024/04/24 04:33:11;;;;;;;7.38;0.98;;;;;;;-146.25;100.00;52382.38;2196239;27;38597;-71
2024/04/24 04:34:13;;;;;;;6.65;0.77;;;;;;;-146.25;100.00;52343.88;2196113;27;33056;-71
2024/04/24 04:35:15;;;;;;;5.53;1.10;;;;;;;-146.25;100.00;52343.88;2197285;26;29047;-71
2024/04/24 04:36:18;;;;;;;7.70;0.63;;;;;;;-146.25;100.00;52382.38;2197281;26;32305;-71
2024/04/24 04:37:19;;;;;;;4.75;0.60;;;;;;;-146.25;100.00;52368.19;2197178;26;31817;-70
2024/04/24 04:38:21;;;;;;;5.03;0.70;;;;;;;-146.25;100.00;52329.66;2196752;26;37507;-71
2024/04/24 04:39:23;;;;;;;5.57;0.63;;;;;;;-146.25;100.00;52388.47;2197071;26;34116;-71
2024/04/24 04:40:25;;;;;;;4.72;0.60;;;;;;;-146.25;100.00;52341.84;2196814;26;34486;-71
2024/04/24 04:41:27;;;;;;;5.28;0.80;;;;;;;-146.25;100.00;52337.78;2197240;26;33917;-71
2024/04/24 04:42:29;;;;;;;2.95;0.68;;;;;;;-146.25;100.00;52380.38;2197568;26;20002;-71
2024/04/24 04:43:31;;;;;;;3.65;0.90;;;;;;;-146.25;100.00;52378.34;2196788;27;35881;-71
2024/04/24 04:44:35;;;;;;;3.78;0.55;;;;;;;-146.25;100.00;52347.91;2197013;26;30511;-71
2024/04/24 04:45:37;;;;;;;6.82;0.95;;;;;;;-146.25;100.00;52339.81;2197187;26;32114;-71
2024/04/24 04:46:39;;;;;;;2.53;0.52;;;;;;;-146.25;100.00;52368.19;2196863;26;35981;-71